Aeroporto :
LOGIN :

Iscrizione | Disclaimer

   EN    FR    IT 

 










Sommario :    VFR   VFR Marginale   IFR   IFR Intensivo   IFR Molto Intensivo
Visibilità : 
Base nubi : 
>= 8 km
>= 3000ft
5 / 8 km
1000 / 3000 ft
1500m / 5 km
500 / 1000 ft
800 / 1500m
200 / 500 ft
< 800m
< 200 ft
Simboli :   Temporali  Nebbia  Neve Forte  Precipitazioni Forti  Vento > 20 kt
SIGMETs :   Varie  Temporali  Ghiacco  Turbolenza  Onda orograficha  Ceneri Vulcaniche






- Altitudine del aeroporto : 1036 ft
- Codice IATA : ERF


EDDE - Erfurt

ULTIMO METAR :
  • 300020Z 27007KT 9999 BKN027 M00/M03 Q1026

METARs OBSOLETI :
  • 292350Z 26006KT 9999 BKN027 M00/M03 Q1026
  • 292320Z 27004KT 9999 BKN027 M00/M03 Q1026
  • 292250Z 23003KT 9999 BKN027 01/M04 Q1026
  • 292220Z 24003KT 9999 BKN027 01/M04 Q1026
  • 292150Z 22003KT 9999 BKN027 01/M04 Q1026

TAF TAF EDDE
Valido dal 30 a 00 ore il 01 a 00 ore UTC


292300Z 3000/3024 VRB03KT 9999 BKN020
PROB30
TEMPO 3000/3006 0300 FZFG OVC001
BECMG 3008/3011 23005KT
TEMPO 3022/3024 SNRA BKN012



MetMap, La meteo Aeronautica in un colpo d'occhio ! - Copyright ORBIFLY Dicembre 2007 - Disclaimer

ORBIFLY MET'MAP TEAM :

Programmazione e sviluppo : Alexandra Zaïnal
Concezione : Baudouin d'Aumeries
Aiuto per la programmazione : Marc-Olivier Méhu
Supporto tecnico e logistico : Manuel Goepfert
Aiuto per la traduzione : Arnaldo La Scala

Contatto : metmap@orbifly.com




FONTI E CREDITI :

   NOAA